• Join FlightAware (Why Join?)
  • Login
  • US Flag 
02:18AM EDT


 

Airport Tracker/Info


-or-


 

Live Flight TrackerFlight Track Log ✈ CPT8773 ✈ 23-Apr-2013 ✈ KCPR - KCOD

Flight Track Log - Related Links

Times and Time Zones

All times are in EDT time to prevent confusion due to time zone crossing. See the CPT8773 flight status page for this flight to view local times or setup timezone preferences in your user account.

Time Position Orientation Groundspeed Altitude Reporting Facility
EDT Latitude Longitude Course Direction KTS MPH feet Rate Location/Type
09:17AM 42.9708 -106.5231 308° West 107 123 10,000  Level Denver Center
09:18AM 42.9983 -106.5339 344° North 107 123 10,900 780 Climbing Denver Center
09:19AM 43.0267 -106.5461 342° North 109 125 11,600 540 Climbing Denver Center
09:20AM 43.0680 -106.2820 36° Northeast  Level FlightAware Approximate
09:20AM 43.0650 -106.5628 342° North 128 147 12,100  Level Denver Center
09:21AM 43.0973 -106.2911 308° West  Level FlightAware Approximate
09:21AM 43.1036 -106.5786 343° North 146 168 12,000  Level Denver Center
09:22AM 43.1230 -106.3360 308° West  Level FlightAware Approximate
09:22AM 43.1433 -106.5964 342° North 155 178 12,000  Level Denver Center
09:23AM 43.1903 -106.6147 344° North 157 181 12,000  Level Denver Center
09:24AM 43.2292 -106.6322 342° North 155 178 12,000  Level Denver Center
09:25AM 43.2706 -106.6472 345° North 158 182 12,000  Level Denver Center
09:26AM 43.3103 -106.6847 326° Northwest 158 182 12,000  Level Denver Center
09:27AM 43.3319 -106.7350 301° West 158 182 12,000  Level Denver Center
09:28AM 43.3561 -106.7811 306° West 156 180 12,000  Level Denver Center
09:29AM 43.3850 -106.8339 307° West 155 178 12,000  Level Denver Center
09:30AM 43.4056 -106.8797 302° West 155 178 12,100  Climbing Denver Center
09:31AM 43.4303 -106.9258 306° West 156 180 12,000 -60 Descending Denver Center
09:32AM 43.4600 -106.9786 308° West 157 181 12,000  Level Denver Center
09:33AM 43.4828 -107.0264 303° West 155 178 12,000  Level Denver Center
09:34AM 43.5119 -107.0800 307° West 156 180 12,000  Level Denver Center
09:35AM 43.5369 -107.1253 307° West 156 180 12,000  Level Denver Center
09:36AM 43.5625 -107.1828 302° West 156 180 12,000  Level Salt Lake Center
09:37AM 43.5861 -107.2292 305° West 154 177 12,000  Level Salt Lake Center
09:38AM 43.6136 -107.2828 305° West 153 176 12,000  Level Salt Lake Center
09:39AM 43.6367 -107.3289 305° West 153 176 12,000 -60 Level Salt Lake Center
09:40AM 43.6614 -107.3742 307° West 153 176 11,900  Descending Salt Lake Center
09:41AM 43.6911 -107.4261 308° West 154 177 12,000  Climbing Salt Lake Center
09:42AM 43.7139 -107.4722 304° West 153 176 12,000  Level Salt Lake Center
09:43AM 43.7422 -107.5250 307° West 153 176 12,000  Level Salt Lake Center
09:44AM 43.7667 -107.5692 307° West 152 175 12,000  Level Salt Lake Center
09:45AM 43.7894 -107.6150 305° West 151 174 12,000  Level Salt Lake Center
09:46AM 43.8169 -107.6667 306° West 150 173 12,000  Level Salt Lake Center
09:47AM 43.8408 -107.7106 307° West 150 173 12,000 -60 Level Salt Lake Center
09:48AM 43.8642 -107.7533 307° West 147 169 11,900  Descending Salt Lake Center
09:49AM 43.8911 -107.8053 306° West 147 169 12,000  Climbing Salt Lake Center
09:50AM 43.9139 -107.8494 306° West 147 169 12,000  Level Salt Lake Center
09:51AM 43.9397 -107.8994 306° West 145 167 12,000  Level Salt Lake Center
09:52AM 43.9633 -107.9444 306° West 147 169 12,000 -60 Level Salt Lake Center
09:53AM 43.9867 -107.9886 306° West 148 170 11,900  Descending Salt Lake Center
09:54AM 44.0136 -108.0403 306° West 148 170 12,000  Climbing Salt Lake Center
09:55AM 44.0367 -108.0861 305° West 149 171 11,900 -60 Descending Salt Lake Center
09:56AM 44.0606 -108.1322 306° West 150 173 11,900  Level Salt Lake Center
09:57AM 44.0886 -108.1850 307° West 151 174 11,900  Level Salt Lake Center
09:58AM 44.1114 -108.2294 306° West 150 173 11,900 -60 Level Salt Lake Center
09:59AM 44.1397 -108.2828 307° West 151 174 11,800 -180 Descending Salt Lake Center
10:01AM 44.1642 -108.3289 306° West 153 176 11,600 -180 Descending Salt Lake Center
10:02AM 44.1886 -108.3758 306° West 154 177 11,500 -180 Descending Salt Lake Center
10:03AM 44.2164 -108.4306 305° West 155 178 11,300 -120 Descending Salt Lake Center
10:04AM 44.2406 -108.4767 306° West 154 177 11,300 -120 Level Salt Lake Center
10:05AM 44.2689 -108.5300 307° West 153 176 11,100 -180 Descending Salt Lake Center
10:06AM 44.2919 -108.5764 305° West 153 176 11,000 -360 Descending Salt Lake Center
10:07AM 44.3169 -108.6239 306° West 154 177 10,400 -540 Descending Salt Lake Center
10:08AM 44.3478 -108.6817 307° West 160 184 10,000 -420 Descending Salt Lake Center